Time,TemperatureF,DewpointF,PressureIn,WindDirection,WindDirectionDegrees,WindSpeedMPH,WindSpeedGustMPH,Humidity,HourlyPrecipIn,Conditions,Clouds,dailyrainin,SoftwareType,DateUTC
2013-01-29 00:00:00,15.0,13.0,30.02,NNE,30,16.0,-999.0,89,-99.99,,,-99.99,,2013-01-29 00:00:00,
2013-01-29 00:21:00,15.0,13.0,30.02,NNE,30,16.0,-999.0,89,-99.99,,,-99.99,,2013-01-29 00:21:00,
2013-01-29 00:32:00,15.0,13.0,30.02,NNE,30,16.0,-999.0,89,-99.99,,,-99.99,,2013-01-29 00:32:00,
2013-01-29 00:41:00,15.0,13.0,30.02,NNE,30,16.0,-999.0,89,-99.99,,,-99.99,,2013-01-29 00:41:00,
2013-01-29 00:51:00,15.0,13.0,30.02,NNE,30,16.0,-999.0,89,-99.99,,,-99.99,,2013-01-29 00:51:00,
2013-01-29 01:00:00,15.0,11.0,30.02,NNE,30,20.0,-999.0,84,-99.99,,,-99.99,,2013-01-29 01:00:00,
2013-01-29 01:22:00,15.0,11.0,30.02,NNE,30,20.0,-999.0,84,-99.99,,,-99.99,,2013-01-29 01:22:00,
2013-01-29 01:31:00,15.0,11.0,30.02,NNE,30,20.0,-999.0,84,-99.99,,,-99.99,,2013-01-29 01:31:00,
2013-01-29 01:41:00,15.0,11.0,30.02,NNE,30,20.0,-999.0,84,-99.99,,,-99.99,,2013-01-29 01:41:00,
2013-01-29 01:52:00,15.0,11.0,30.02,NNE,30,20.0,-999.0,84,-99.99,,,-99.99,,2013-01-29 01:52:00,
2013-01-29 02:00:00,16.0,10.0,30.02,NNE,30,17.0,-999.0,77,-99.99,,,-99.99,,2013-01-29 02:00:00,
2013-01-29 02:21:00,16.0,10.0,30.02,NNE,30,17.0,-999.0,77,-99.99,,,-99.99,,2013-01-29 02:21:00,
2013-01-29 02:32:00,16.0,10.0,30.02,NNE,30,17.0,-999.0,77,-99.99,,,-99.99,,2013-01-29 02:32:00,
2013-01-29 02:41:00,16.0,10.0,30.02,NNE,30,17.0,-999.0,77,-99.99,,,-99.99,,2013-01-29 02:41:00,
2013-01-29 02:52:00,16.0,10.0,30.02,NNE,30,17.0,-999.0,77,-99.99,,,-99.99,,2013-01-29 02:52:00,
2013-01-29 03:00:00,17.0,9.0,30.01,NNE,30,11.0,-999.0,71,-99.99,,,-99.99,,2013-01-29 03:00:00,
2013-01-29 03:21:00,17.0,9.0,30.01,NNE,30,11.0,-999.0,71,-99.99,,,-99.99,,2013-01-29 03:21:00,
2013-01-29 03:31:00,17.0,9.0,30.01,NNE,30,11.0,-999.0,71,-99.99,,,-99.99,,2013-01-29 03:31:00,
2013-01-29 03:41:00,17.0,9.0,30.01,NNE,30,11.0,-999.0,71,-99.99,,,-99.99,,2013-01-29 03:41:00,
2013-01-29 03:52:00,17.0,9.0,30.01,NNE,30,11.0,-999.0,71,-99.99,,,-99.99,,2013-01-29 03:52:00,
2013-01-29 04:21:00,19.0,11.0,30.03,North,350,9.0,-999.0,70,-99.99,,,-99.99,,2013-01-29 04:21:00,
2013-01-29 04:31:00,19.0,11.0,30.03,North,350,9.0,-999.0,70,-99.99,,,-99.99,,2013-01-29 04:31:00,
2013-01-29 04:41:00,19.0,11.0,30.03,North,350,9.0,-999.0,70,-99.99,,,-99.99,,2013-01-29 04:41:00,
2013-01-29 04:51:00,19.0,11.0,30.03,North,350,9.0,-999.0,70,-99.99,,,-99.99,,2013-01-29 04:51:00,
2013-01-29 05:00:00,17.0,8.0,30.05,North,350,7.0,-999.0,66,-99.99,,,-99.99,,2013-01-29 05:00:00,
2013-01-29 05:21:00,17.0,8.0,30.05,North,350,7.0,-999.0,66,-99.99,,,-99.99,,2013-01-29 05:21:00,
2013-01-29 05:31:00,17.0,8.0,30.05,North,350,7.0,-999.0,66,-99.99,,,-99.99,,2013-01-29 05:31:00,
2013-01-29 05:42:00,17.0,8.0,30.05,North,350,7.0,-999.0,66,-99.99,,,-99.99,,2013-01-29 05:42:00,
2013-01-29 05:52:00,17.0,8.0,30.05,North,350,7.0,-999.0,66,-99.99,,,-99.99,,2013-01-29 05:52:00,
2013-01-29 06:00:00,16.0,6.0,30.04,North,360,6.0,-999.0,62,-99.99,,,-99.99,,2013-01-29 06:00:00,
2013-01-29 06:21:00,16.0,6.0,30.04,North,360,6.0,-999.0,62,-99.99,,,-99.99,,2013-01-29 06:21:00,
2013-01-29 06:31:00,16.0,6.0,30.04,North,360,6.0,-999.0,62,-99.99,,,-99.99,,2013-01-29 06:31:00,
2013-01-29 06:41:00,16.0,6.0,30.04,North,360,6.0,-999.0,62,-99.99,,,-99.99,,2013-01-29 06:41:00,
2013-01-29 06:52:00,16.0,6.0,30.04,North,360,6.0,-999.0,62,-99.99,,,-99.99,,2013-01-29 06:52:00,
2013-01-29 07:00:00,16.0,4.0,30.05,North,360,5.0,-999.0,59,-99.99,,,-99.99,,2013-01-29 07:00:00,
2013-01-29 07:21:00,16.0,4.0,30.05,North,360,5.0,-999.0,59,-99.99,,,-99.99,,2013-01-29 07:21:00,
2013-01-29 07:31:00,16.0,4.0,30.05,North,360,5.0,-999.0,59,-99.99,,,-99.99,,2013-01-29 07:31:00,
2013-01-29 07:41:00,16.0,4.0,30.05,North,360,5.0,-999.0,59,-99.99,,,-99.99,,2013-01-29 07:41:00,
2013-01-29 07:51:00,16.0,4.0,30.05,North,360,5.0,-999.0,59,-99.99,,,-99.99,,2013-01-29 07:51:00,
2013-01-29 08:00:00,17.0,5.0,30.08,North,350,5.0,-999.0,57,-99.99,,,-99.99,,2013-01-29 08:00:00,
2013-01-29 08:21:00,17.0,5.0,30.08,North,350,5.0,-999.0,57,-99.99,,,-99.99,,2013-01-29 08:21:00,
2013-01-29 08:31:00,17.0,5.0,30.08,North,350,5.0,-999.0,57,-99.99,,,-99.99,,2013-01-29 08:31:00,
2013-01-29 08:41:00,17.0,5.0,30.08,North,350,5.0,-999.0,57,-99.99,,,-99.99,,2013-01-29 08:41:00,
2013-01-29 08:51:00,17.0,5.0,30.08,North,350,5.0,-999.0,57,-99.99,,,-99.99,,2013-01-29 08:51:00,
2013-01-29 09:00:00,17.0,5.0,30.10,North,360,8.0,-999.0,59,-99.99,,,-99.99,,2013-01-29 09:00:00,
2013-01-29 09:21:00,17.0,5.0,30.10,North,360,8.0,-999.0,59,-99.99,,,-99.99,,2013-01-29 09:21:00,
2013-01-29 09:31:00,17.0,5.0,30.10,North,360,8.0,-999.0,59,-99.99,,,-99.99,,2013-01-29 09:31:00,
2013-01-29 09:41:00,17.0,5.0,30.10,North,360,8.0,-999.0,59,-99.99,,,-99.99,,2013-01-29 09:41:00,
2013-01-29 09:51:00,17.0,5.0,30.10,North,360,8.0,-999.0,59,-99.99,,,-99.99,,2013-01-29 09:51:00,
2013-01-29 10:00:00,14.0,4.0,30.09,NNE,20,8.0,-999.0,63,-99.99,,,-99.99,,2013-01-29 10:00:00,
2013-01-29 10:21:00,14.0,4.0,30.09,NNE,20,8.0,-999.0,63,-99.99,,,-99.99,,2013-01-29 10:21:00,
2013-01-29 10:32:00,14.0,4.0,30.09,NNE,20,8.0,-999.0,63,-99.99,,,-99.99,,2013-01-29 10:32:00,
2013-01-29 10:41:00,14.0,4.0,30.09,NNE,20,8.0,-999.0,63,-99.99,,,-99.99,,2013-01-29 10:41:00,
2013-01-29 10:51:00,14.0,4.0,30.09,NNE,20,8.0,-999.0,63,-99.99,,,-99.99,,2013-01-29 10:51:00,
2013-01-29 11:00:00,14.0,6.0,30.09,ENE,60,6.0,-999.0,70,-99.99,,,-99.99,,2013-01-29 11:00:00,
2013-01-29 11:21:00,14.0,6.0,30.09,ENE,60,6.0,-999.0,70,-99.99,,,-99.99,,2013-01-29 11:21:00,
2013-01-29 11:31:00,14.0,6.0,30.09,ENE,60,6.0,-999.0,70,-99.99,,,-99.99,,2013-01-29 11:31:00,
2013-01-29 11:41:00,14.0,6.0,30.09,ENE,60,6.0,-999.0,70,-99.99,,,-99.99,,2013-01-29 11:41:00,
2013-01-29 11:52:00,14.0,6.0,30.09,ENE,60,6.0,-999.0,70,-99.99,,,-99.99,,2013-01-29 11:52:00,
2013-01-29 12:00:00,14.0,4.0,30.11,East,100,3.0,-999.0,63,-99.99,,,-99.99,,2013-01-29 12:00:00,
2013-01-29 12:21:00,14.0,4.0,30.11,East,100,3.0,-999.0,63,-99.99,,,-99.99,,2013-01-29 12:21:00,
2013-01-29 12:32:00,14.0,4.0,30.11,East,100,3.0,-999.0,63,-99.99,,,-99.99,,2013-01-29 12:32:00,
2013-01-29 12:42:00,14.0,4.0,30.11,East,100,3.0,-999.0,63,-99.99,,,-99.99,,2013-01-29 12:42:00,
2013-01-29 12:52:00,14.0,4.0,30.11,East,100,3.0,-999.0,63,-99.99,,,-99.99,,2013-01-29 12:52:00,
2013-01-29 13:00:00,17.0,6.0,30.14,North,360,6.0,-999.0,62,-99.99,,,-99.99,,2013-01-29 13:00:00,
2013-01-29 13:22:00,17.0,6.0,30.14,North,360,6.0,-999.0,62,-99.99,,,-99.99,,2013-01-29 13:22:00,
2013-01-29 13:31:00,17.0,6.0,30.14,North,360,6.0,-999.0,62,-99.99,,,-99.99,,2013-01-29 13:31:00,
2013-01-29 13:42:00,17.0,6.0,30.14,North,360,6.0,-999.0,62,-99.99,,,-99.99,,2013-01-29 13:42:00,
2013-01-29 13:52:00,17.0,6.0,30.14,North,360,6.0,-999.0,62,-99.99,,,-99.99,,2013-01-29 13:52:00,
2013-01-29 14:00:00,18.0,7.0,30.16,NNW,340,2.0,-999.0,62,-99.99,,,-99.99,,2013-01-29 14:00:00,
2013-01-29 14:21:00,18.0,7.0,30.16,NNW,340,2.0,-999.0,62,-99.99,,,-99.99,,2013-01-29 14:21:00,
2013-01-29 14:32:00,18.0,7.0,30.16,NNW,340,2.0,-999.0,62,-99.99,,,-99.99,,2013-01-29 14:32:00,
2013-01-29 14:42:00,18.0,7.0,30.16,NNW,340,2.0,-999.0,62,-99.99,,,-99.99,,2013-01-29 14:42:00,
2013-01-29 14:52:00,18.0,7.0,30.16,NNW,340,2.0,-999.0,62,-99.99,,,-99.99,,2013-01-29 14:52:00,
2013-01-29 15:00:00,18.0,8.0,30.19,ENE,60,5.0,-999.0,65,-99.99,,,-99.99,,2013-01-29 15:00:00,
2013-01-29 15:21:00,18.0,8.0,30.19,ENE,60,5.0,-999.0,65,-99.99,,,-99.99,,2013-01-29 15:21:00,
2013-01-29 15:32:00,18.0,8.0,30.19,ENE,60,5.0,-999.0,65,-99.99,,,-99.99,,2013-01-29 15:32:00,
2013-01-29 15:42:00,18.0,8.0,30.19,ENE,60,5.0,-999.0,65,-99.99,,,-99.99,,2013-01-29 15:42:00,
2013-01-29 15:52:00,18.0,8.0,30.19,ENE,60,5.0,-999.0,65,-99.99,,,-99.99,,2013-01-29 15:52:00,
2013-01-29 16:00:00,18.0,8.0,30.17,NE,50,8.0,-999.0,63,-99.99,,,-99.99,,2013-01-29 16:00:00,
2013-01-29 16:21:00,18.0,8.0,30.17,NE,50,8.0,-999.0,63,-99.99,,,-99.99,,2013-01-29 16:21:00,
2013-01-29 16:31:00,18.0,8.0,30.17,NE,50,8.0,-999.0,63,-99.99,,,-99.99,,2013-01-29 16:31:00,
2013-01-29 16:42:00,18.0,8.0,30.17,NE,50,8.0,-999.0,63,-99.99,,,-99.99,,2013-01-29 16:42:00,
2013-01-29 16:52:00,18.0,8.0,30.17,NE,50,8.0,-999.0,63,-99.99,,,-99.99,,2013-01-29 16:52:00,
2013-01-29 17:00:00,20.0,10.0,30.13,NNE,30,8.0,-999.0,63,-99.99,,,-99.99,,2013-01-29 17:00:00,
2013-01-29 17:21:00,20.0,10.0,30.13,NNE,30,8.0,-999.0,63,-99.99,,,-99.99,,2013-01-29 17:21:00,
2013-01-29 17:31:00,20.0,10.0,30.13,NNE,30,8.0,-999.0,63,-99.99,,,-99.99,,2013-01-29 17:31:00,
2013-01-29 17:41:00,20.0,10.0,30.13,NNE,30,8.0,-999.0,63,-99.99,,,-99.99,,2013-01-29 17:41:00,
2013-01-29 17:52:00,20.0,10.0,30.13,NNE,30,8.0,-999.0,63,-99.99,,,-99.99,,2013-01-29 17:52:00,
2013-01-29 18:00:00,22.0,13.0,30.11,NE,40,8.0,-999.0,68,-99.99,,,-99.99,,2013-01-29 18:00:00,
2013-01-29 18:21:00,22.0,13.0,30.11,NE,40,8.0,-999.0,68,-99.99,,,-99.99,,2013-01-29 18:21:00,
2013-01-29 18:33:00,22.0,13.0,30.11,NE,40,8.0,-999.0,68,-99.99,,,-99.99,,2013-01-29 18:33:00,
2013-01-29 18:41:00,22.0,13.0,30.11,NE,40,8.0,-999.0,68,-99.99,,,-99.99,,2013-01-29 18:41:00,
2013-01-29 18:51:00,22.0,13.0,30.11,NE,40,8.0,-999.0,68,-99.99,,,-99.99,,2013-01-29 18:51:00,
2013-01-29 19:00:00,23.0,14.0,30.08,NE,50,7.0,-999.0,69,-99.99,,,-99.99,,2013-01-29 19:00:00,
2013-01-29 19:22:00,23.0,14.0,30.08,NE,50,7.0,-999.0,69,-99.99,,,-99.99,,2013-01-29 19:22:00,
2013-01-29 19:31:00,23.0,14.0,30.08,NE,50,7.0,-999.0,69,-99.99,,,-99.99,,2013-01-29 19:31:00,
2013-01-29 19:41:00,23.0,14.0,30.08,NE,50,7.0,-999.0,69,-99.99,,,-99.99,,2013-01-29 19:41:00,
2013-01-29 19:51:00,23.0,14.0,30.08,NE,50,7.0,-999.0,69,-99.99,,,-99.99,,2013-01-29 19:51:00,
2013-01-29 20:00:00,24.0,15.0,30.06,NNE,30,7.0,-999.0,69,-99.99,,,-99.99,,2013-01-29 20:00:00,
2013-01-29 20:21:00,24.0,15.0,30.06,NNE,30,7.0,-999.0,69,-99.99,,,-99.99,,2013-01-29 20:21:00,
2013-01-29 20:32:00,24.0,15.0,30.06,NNE,30,7.0,-999.0,69,-99.99,,,-99.99,,2013-01-29 20:32:00,
2013-01-29 20:41:00,24.0,15.0,30.06,NNE,30,7.0,-999.0,69,-99.99,,,-99.99,,2013-01-29 20:41:00,
2013-01-29 20:52:00,24.0,15.0,30.06,NNE,30,7.0,-999.0,69,-99.99,,,-99.99,,2013-01-29 20:52:00,
2013-01-29 21:00:00,24.0,16.0,30.05,NE,50,8.0,-999.0,70,-99.99,,,-99.99,,2013-01-29 21:00:00,
2013-01-29 21:21:00,24.0,16.0,30.05,NE,50,8.0,-999.0,70,-99.99,,,-99.99,,2013-01-29 21:21:00,
2013-01-29 21:32:00,24.0,16.0,30.05,NE,50,8.0,-999.0,70,-99.99,,,-99.99,,2013-01-29 21:32:00,
2013-01-29 21:41:00,24.0,16.0,30.05,NE,50,8.0,-999.0,70,-99.99,,,-99.99,,2013-01-29 21:41:00,
2013-01-29 21:52:00,24.0,16.0,30.05,NE,50,8.0,-999.0,70,-99.99,,,-99.99,,2013-01-29 21:52:00,
2013-01-29 22:00:00,24.0,17.0,30.03,NE,40,6.0,-999.0,74,-99.99,,,-99.99,,2013-01-29 22:00:00,
2013-01-29 22:21:00,24.0,17.0,30.03,NE,40,6.0,-999.0,74,-99.99,,,-99.99,,2013-01-29 22:21:00,
2013-01-29 22:32:00,24.0,17.0,30.03,NE,40,6.0,-999.0,74,-99.99,,,-99.99,,2013-01-29 22:32:00,
2013-01-29 22:41:00,24.0,17.0,30.03,NE,40,6.0,-999.0,74,-99.99,,,-99.99,,2013-01-29 22:41:00,
2013-01-29 22:52:00,24.0,17.0,30.03,NE,40,6.0,-999.0,74,-99.99,,,-99.99,,2013-01-29 22:52:00,
2013-01-29 23:00:00,24.0,17.0,30.01,NE,40,8.0,-999.0,74,-99.99,,,-99.99,,2013-01-29 23:00:00,
2013-01-29 23:21:00,24.0,17.0,30.01,NE,40,8.0,-999.0,74,-99.99,,,-99.99,,2013-01-29 23:21:00,
2013-01-29 23:31:00,24.0,17.0,30.01,NE,40,8.0,-999.0,74,-99.99,,,-99.99,,2013-01-29 23:31:00,
2013-01-29 23:41:00,24.0,17.0,30.01,NE,40,8.0,-999.0,74,-99.99,,,-99.99,,2013-01-29 23:41:00,
2013-01-29 23:52:00,24.0,17.0,30.01,NE,40,8.0,-999.0,74,-99.99,,,-99.99,,2013-01-29 23:52:00,